sensor_id;sensor_type;location;lat;lon;timestamp;P1;durP1;ratioP1;P2;durP2;ratioP2
6378;SDS011;3222;48.858;10.128;2022-08-21T00:01:18;3.43;;;1.40;;
6378;SDS011;3222;48.858;10.128;2022-08-21T00:03:46;2.40;;;1.40;;
6378;SDS011;3222;48.858;10.128;2022-08-21T00:06:12;1.60;;;1.50;;
6378;SDS011;3222;48.858;10.128;2022-08-21T00:08:38;3.33;;;1.57;;
6378;SDS011;3222;48.858;10.128;2022-08-21T00:11:04;2.03;;;1.30;;
6378;SDS011;3222;48.858;10.128;2022-08-21T00:13:30;1.20;;;1.20;;
6378;SDS011;3222;48.858;10.128;2022-08-21T00:15:57;2.93;;;1.40;;
6378;SDS011;3222;48.858;10.128;2022-08-21T00:18:23;1.77;;;1.23;;
6378;SDS011;3222;48.858;10.128;2022-08-21T00:20:48;2.40;;;1.40;;
6378;SDS011;3222;48.858;10.128;2022-08-21T00:23:14;2.17;;;1.33;;
6378;SDS011;3222;48.858;10.128;2022-08-21T00:25:41;1.43;;;1.33;;
6378;SDS011;3222;48.858;10.128;2022-08-21T00:28:08;2.70;;;1.40;;
6378;SDS011;3222;48.858;10.128;2022-08-21T00:30:34;1.30;;;1.20;;
6378;SDS011;3222;48.858;10.128;2022-08-21T00:33:00;1.30;;;1.20;;
6378;SDS011;3222;48.858;10.128;2022-08-21T00:35:31;1.20;;;1.20;;
6378;SDS011;3222;48.858;10.128;2022-08-21T00:37:59;3.60;;;1.40;;
6378;SDS011;3222;48.858;10.128;2022-08-21T00:40:27;1.80;;;1.30;;
6378;SDS011;3222;48.858;10.128;2022-08-21T00:42:56;1.37;;;1.10;;
6378;SDS011;3222;48.858;10.128;2022-08-21T00:45:22;1.47;;;1.37;;
6378;SDS011;3222;48.858;10.128;2022-08-21T00:47:49;1.83;;;1.33;;
6378;SDS011;3222;48.858;10.128;2022-08-21T00:50:16;1.63;;;1.50;;
6378;SDS011;3222;48.858;10.128;2022-08-21T00:52:43;2.67;;;1.40;;
6378;SDS011;3222;48.858;10.128;2022-08-21T00:55:10;1.50;;;1.20;;
6378;SDS011;3222;48.858;10.128;2022-08-21T00:57:47;1.57;;;1.10;;
6378;SDS011;3222;48.858;10.128;2022-08-21T01:00:16;2.60;;;1.30;;
6378;SDS011;3222;48.858;10.128;2022-08-21T01:02:44;2.00;;;1.43;;
6378;SDS011;3222;48.858;10.128;2022-08-21T01:05:11;1.80;;;1.70;;
6378;SDS011;3222;48.858;10.128;2022-08-21T01:07:37;4.20;;;1.53;;
6378;SDS011;3222;48.858;10.128;2022-08-21T01:10:05;2.87;;;1.43;;
6378;SDS011;3222;48.858;10.128;2022-08-21T01:12:33;1.50;;;1.37;;
6378;SDS011;3222;48.858;10.128;2022-08-21T01:15:00;4.17;;;1.50;;
6378;SDS011;3222;48.858;10.128;2022-08-21T01:17:29;1.73;;;1.27;;
6378;SDS011;3222;48.858;10.128;2022-08-21T01:19:59;1.90;;;1.50;;
6378;SDS011;3222;48.858;10.128;2022-08-21T01:22:27;4.73;;;1.23;;
6378;SDS011;3222;48.858;10.128;2022-08-21T01:24:53;1.33;;;1.23;;
6378;SDS011;3222;48.858;10.128;2022-08-21T01:27:18;2.17;;;1.50;;
6378;SDS011;3222;48.858;10.128;2022-08-21T01:29:53;2.20;;;1.50;;
6378;SDS011;3222;48.858;10.128;2022-08-21T01:32:23;5.10;;;1.50;;
6378;SDS011;3222;48.858;10.128;2022-08-21T01:34:50;1.63;;;1.20;;
6378;SDS011;3222;48.858;10.128;2022-08-21T01:37:17;2.53;;;1.60;;
6378;SDS011;3222;48.858;10.128;2022-08-21T01:39:44;3.37;;;1.67;;
6378;SDS011;3222;48.858;10.128;2022-08-21T01:42:11;1.50;;;1.40;;
6378;SDS011;3222;48.858;10.128;2022-08-21T01:44:37;1.50;;;1.40;;
6378;SDS011;3222;48.858;10.128;2022-08-21T01:47:04;1.50;;;1.40;;
6378;SDS011;3222;48.858;10.128;2022-08-21T01:49:32;1.67;;;1.53;;
6378;SDS011;3222;48.858;10.128;2022-08-21T01:51:59;2.07;;;1.30;;
6378;SDS011;3222;48.858;10.128;2022-08-21T01:54:24;1.47;;;1.37;;
6378;SDS011;3222;48.858;10.128;2022-08-21T01:56:51;2.43;;;1.33;;
6378;SDS011;3222;48.858;10.128;2022-08-21T01:59:18;1.57;;;1.40;;
6378;SDS011;3222;48.858;10.128;2022-08-21T02:01:45;2.80;;;1.60;;
6378;SDS011;3222;48.858;10.128;2022-08-21T02:04:10;2.73;;;1.70;;
6378;SDS011;3222;48.858;10.128;2022-08-21T02:06:36;2.10;;;1.60;;
6378;SDS011;3222;48.858;10.128;2022-08-21T02:09:03;1.73;;;1.63;;
6378;SDS011;3222;48.858;10.128;2022-08-21T02:11:31;4.13;;;1.80;;
6378;SDS011;3222;48.858;10.128;2022-08-21T02:13:59;1.97;;;1.60;;
6378;SDS011;3222;48.858;10.128;2022-08-21T02:16:25;2.30;;;1.40;;
6378;SDS011;3222;48.858;10.128;2022-08-21T02:18:51;1.50;;;1.40;;
6378;SDS011;3222;48.858;10.128;2022-08-21T02:21:17;1.40;;;1.20;;
6378;SDS011;3222;48.858;10.128;2022-08-21T02:23:43;1.60;;;1.50;;
6378;SDS011;3222;48.858;10.128;2022-08-21T02:26:09;1.50;;;1.23;;
6378;SDS011;3222;48.858;10.128;2022-08-21T02:28:35;2.17;;;1.80;;
6378;SDS011;3222;48.858;10.128;2022-08-21T02:31:03;5.87;;;1.53;;
6378;SDS011;3222;48.858;10.128;2022-08-21T02:33:29;2.17;;;1.70;;
6378;SDS011;3222;48.858;10.128;2022-08-21T02:35:55;1.50;;;1.40;;
6378;SDS011;3222;48.858;10.128;2022-08-21T02:38:23;1.53;;;1.43;;
6378;SDS011;3222;48.858;10.128;2022-08-21T02:40:53;2.43;;;1.40;;
6378;SDS011;3222;48.858;10.128;2022-08-21T02:43:20;2.40;;;1.40;;
6378;SDS011;3222;48.858;10.128;2022-08-21T02:45:49;2.40;;;1.40;;
6378;SDS011;3222;48.858;10.128;2022-08-21T02:48:18;2.60;;;1.80;;
6378;SDS011;3222;48.858;10.128;2022-08-21T02:50:47;3.07;;;1.50;;
6378;SDS011;3222;48.858;10.128;2022-08-21T02:53:16;4.73;;;1.83;;
6378;SDS011;3222;48.858;10.128;2022-08-21T02:55:42;1.83;;;1.50;;
6378;SDS011;3222;48.858;10.128;2022-08-21T02:58:10;1.73;;;1.30;;
6378;SDS011;3222;48.858;10.128;2022-08-21T03:00:37;1.67;;;1.57;;
6378;SDS011;3222;48.858;10.128;2022-08-21T03:03:04;2.10;;;1.90;;
6378;SDS011;3222;48.858;10.128;2022-08-21T03:05:30;2.97;;;1.53;;
6378;SDS011;3222;48.858;10.128;2022-08-21T03:07:58;1.60;;;1.50;;
6378;SDS011;3222;48.858;10.128;2022-08-21T03:10:24;2.10;;;1.90;;
6378;SDS011;3222;48.858;10.128;2022-08-21T03:12:50;2.20;;;1.67;;
6378;SDS011;3222;48.858;10.128;2022-08-21T03:15:18;2.93;;;1.80;;
6378;SDS011;3222;48.858;10.128;2022-08-21T03:17:45;3.03;;;1.90;;
6378;SDS011;3222;48.858;10.128;2022-08-21T03:20:13;1.67;;;1.57;;
6378;SDS011;3222;48.858;10.128;2022-08-21T03:22:40;4.40;;;1.87;;
6378;SDS011;3222;48.858;10.128;2022-08-21T03:25:06;2.10;;;1.70;;
6378;SDS011;3222;48.858;10.128;2022-08-21T03:27:33;2.53;;;1.80;;
6378;SDS011;3222;48.858;10.128;2022-08-21T03:30:00;2.10;;;1.67;;
6378;SDS011;3222;48.858;10.128;2022-08-21T03:32:27;2.10;;;1.70;;
6378;SDS011;3222;48.858;10.128;2022-08-21T03:34:54;3.43;;;1.90;;
6378;SDS011;3222;48.858;10.128;2022-08-21T03:37:19;1.97;;;1.87;;
6378;SDS011;3222;48.858;10.128;2022-08-21T03:39:45;2.10;;;1.90;;
6378;SDS011;3222;48.858;10.128;2022-08-21T03:42:11;1.70;;;1.60;;
6378;SDS011;3222;48.858;10.128;2022-08-21T03:44:37;2.00;;;1.90;;
6378;SDS011;3222;48.858;10.128;2022-08-21T03:47:04;1.97;;;1.80;;
6378;SDS011;3222;48.858;10.128;2022-08-21T03:49:30;1.97;;;1.77;;
6378;SDS011;3222;48.858;10.128;2022-08-21T03:51:56;2.23;;;1.60;;
6378;SDS011;3222;48.858;10.128;2022-08-21T03:54:22;4.30;;;1.70;;
6378;SDS011;3222;48.858;10.128;2022-08-21T03:56:48;1.70;;;1.60;;
6378;SDS011;3222;48.858;10.128;2022-08-21T03:59:14;1.90;;;1.77;;
6378;SDS011;3222;48.858;10.128;2022-08-21T04:01:50;2.60;;;2.00;;
6378;SDS011;3222;48.858;10.128;2022-08-21T04:04:21;1.73;;;1.63;;
6378;SDS011;3222;48.858;10.128;2022-08-21T04:06:47;2.23;;;1.93;;
6378;SDS011;3222;48.858;10.128;2022-08-21T04:09:12;3.53;;;1.80;;
6378;SDS011;3222;48.858;10.128;2022-08-21T04:11:38;3.93;;;2.10;;
6378;SDS011;3222;48.858;10.128;2022-08-21T04:14:04;1.80;;;1.53;;
6378;SDS011;3222;48.858;10.128;2022-08-21T04:16:30;3.77;;;1.70;;
6378;SDS011;3222;48.858;10.128;2022-08-21T04:18:56;2.23;;;1.70;;
6378;SDS011;3222;48.858;10.128;2022-08-21T04:21:21;2.63;;;1.63;;
6378;SDS011;3222;48.858;10.128;2022-08-21T04:23:48;2.87;;;1.73;;
6378;SDS011;3222;48.858;10.128;2022-08-21T04:26:13;4.07;;;2.13;;
6378;SDS011;3222;48.858;10.128;2022-08-21T04:28:39;2.97;;;1.70;;
6378;SDS011;3222;48.858;10.128;2022-08-21T04:31:05;1.70;;;1.60;;
6378;SDS011;3222;48.858;10.128;2022-08-21T04:33:31;1.77;;;1.67;;
6378;SDS011;3222;48.858;10.128;2022-08-21T04:35:57;2.87;;;1.70;;
6378;SDS011;3222;48.858;10.128;2022-08-21T04:38:22;1.97;;;1.80;;
6378;SDS011;3222;48.858;10.128;2022-08-21T04:40:48;3.17;;;1.97;;
6378;SDS011;3222;48.858;10.128;2022-08-21T04:43:15;4.13;;;2.00;;
6378;SDS011;3222;48.858;10.128;2022-08-21T04:45:42;1.77;;;1.67;;
6378;SDS011;3222;48.858;10.128;2022-08-21T04:48:10;2.07;;;1.70;;
6378;SDS011;3222;48.858;10.128;2022-08-21T04:50:40;2.17;;;1.77;;
6378;SDS011;3222;48.858;10.128;2022-08-21T04:53:14;1.70;;;1.60;;
6378;SDS011;3222;48.858;10.128;2022-08-21T04:55:44;2.47;;;1.70;;
6378;SDS011;3222;48.858;10.128;2022-08-21T04:58:12;2.60;;;1.80;;
6378;SDS011;3222;48.858;10.128;2022-08-21T05:00:40;1.80;;;1.70;;
6378;SDS011;3222;48.858;10.128;2022-08-21T05:03:06;1.80;;;1.70;;
6378;SDS011;3222;48.858;10.128;2022-08-21T05:05:34;2.17;;;1.97;;
6378;SDS011;3222;48.858;10.128;2022-08-21T05:08:00;2.30;;;1.40;;
6378;SDS011;3222;48.858;10.128;2022-08-21T05:10:27;1.97;;;1.70;;
6378;SDS011;3222;48.858;10.128;2022-08-21T05:12:54;5.07;;;2.03;;
6378;SDS011;3222;48.858;10.128;2022-08-21T05:15:20;3.07;;;2.20;;
6378;SDS011;3222;48.858;10.128;2022-08-21T05:17:46;2.20;;;1.97;;
6378;SDS011;3222;48.858;10.128;2022-08-21T05:20:12;3.03;;;2.40;;
6378;SDS011;3222;48.858;10.128;2022-08-21T05:22:38;2.00;;;1.90;;
6378;SDS011;3222;48.858;10.128;2022-08-21T05:25:05;2.33;;;1.77;;
6378;SDS011;3222;48.858;10.128;2022-08-21T05:27:31;2.00;;;1.83;;
6378;SDS011;3222;48.858;10.128;2022-08-21T05:29:58;2.13;;;1.93;;
6378;SDS011;3222;48.858;10.128;2022-08-21T05:32:24;1.90;;;1.80;;
6378;SDS011;3222;48.858;10.128;2022-08-21T05:34:50;3.60;;;1.67;;
6378;SDS011;3222;48.858;10.128;2022-08-21T05:37:16;2.77;;;2.07;;
6378;SDS011;3222;48.858;10.128;2022-08-21T05:39:42;2.40;;;2.00;;
6378;SDS011;3222;48.858;10.128;2022-08-21T05:42:07;2.10;;;1.90;;
6378;SDS011;3222;48.858;10.128;2022-08-21T05:44:33;2.00;;;1.87;;
6378;SDS011;3222;48.858;10.128;2022-08-21T05:47:03;1.70;;;1.60;;
6378;SDS011;3222;48.858;10.128;2022-08-21T05:49:30;1.97;;;1.87;;
6378;SDS011;3222;48.858;10.128;2022-08-21T05:51:55;2.43;;;1.80;;
6378;SDS011;3222;48.858;10.128;2022-08-21T05:54:21;2.73;;;2.20;;
6378;SDS011;3222;48.858;10.128;2022-08-21T05:56:47;1.70;;;1.60;;
6378;SDS011;3222;48.858;10.128;2022-08-21T05:59:12;1.83;;;1.60;;
6378;SDS011;3222;48.858;10.128;2022-08-21T06:01:38;3.10;;;2.00;;
6378;SDS011;3222;48.858;10.128;2022-08-21T06:04:05;2.30;;;1.60;;
6378;SDS011;3222;48.858;10.128;2022-08-21T06:06:32;2.23;;;2.00;;
6378;SDS011;3222;48.858;10.128;2022-08-21T06:08:58;2.23;;;1.70;;
6378;SDS011;3222;48.858;10.128;2022-08-21T06:11:24;2.10;;;1.90;;
6378;SDS011;3222;48.858;10.128;2022-08-21T06:13:50;1.90;;;1.80;;
6378;SDS011;3222;48.858;10.128;2022-08-21T06:16:15;5.73;;;2.10;;
6378;SDS011;3222;48.858;10.128;2022-08-21T06:18:42;4.17;;;1.70;;
6378;SDS011;3222;48.858;10.128;2022-08-21T06:21:09;1.67;;;1.57;;
6378;SDS011;3222;48.858;10.128;2022-08-21T06:23:36;2.70;;;1.60;;
6378;SDS011;3222;48.858;10.128;2022-08-21T06:26:02;2.20;;;2.00;;
6378;SDS011;3222;48.858;10.128;2022-08-21T06:28:30;2.60;;;2.03;;
6378;SDS011;3222;48.858;10.128;2022-08-21T06:30:56;3.97;;;2.17;;
6378;SDS011;3222;48.858;10.128;2022-08-21T06:33:22;2.50;;;1.93;;
6378;SDS011;3222;48.858;10.128;2022-08-21T06:35:48;2.67;;;2.30;;
6378;SDS011;3222;48.858;10.128;2022-08-21T06:38:14;2.27;;;2.00;;
6378;SDS011;3222;48.858;10.128;2022-08-21T06:40:40;6.63;;;2.83;;
6378;SDS011;3222;48.858;10.128;2022-08-21T06:43:07;3.13;;;2.20;;
6378;SDS011;3222;48.858;10.128;2022-08-21T06:45:35;2.63;;;2.07;;
6378;SDS011;3222;48.858;10.128;2022-08-21T06:48:01;2.33;;;2.20;;
6378;SDS011;3222;48.858;10.128;2022-08-21T06:50:27;2.40;;;1.80;;
6378;SDS011;3222;48.858;10.128;2022-08-21T06:53:00;3.37;;;2.10;;
6378;SDS011;3222;48.858;10.128;2022-08-21T06:55:30;2.30;;;2.10;;
6378;SDS011;3222;48.858;10.128;2022-08-21T06:57:57;5.67;;;2.20;;
6378;SDS011;3222;48.858;10.128;2022-08-21T07:00:23;2.97;;;1.83;;
6378;SDS011;3222;48.858;10.128;2022-08-21T07:02:50;2.50;;;2.10;;
6378;SDS011;3222;48.858;10.128;2022-08-21T07:05:15;2.10;;;1.90;;
6378;SDS011;3222;48.858;10.128;2022-08-21T07:07:41;2.33;;;2.13;;
6378;SDS011;3222;48.858;10.128;2022-08-21T07:10:08;3.47;;;2.13;;
6378;SDS011;3222;48.858;10.128;2022-08-21T07:12:34;2.50;;;2.23;;
6378;SDS011;3222;48.858;10.128;2022-08-21T07:15:00;3.47;;;2.47;;
6378;SDS011;3222;48.858;10.128;2022-08-21T07:17:26;2.53;;;2.03;;
6378;SDS011;3222;48.858;10.128;2022-08-21T07:19:51;3.77;;;2.57;;
6378;SDS011;3222;48.858;10.128;2022-08-21T07:22:18;2.40;;;2.20;;
6378;SDS011;3222;48.858;10.128;2022-08-21T07:24:46;3.97;;;2.43;;
6378;SDS011;3222;48.858;10.128;2022-08-21T07:27:12;3.43;;;2.17;;
6378;SDS011;3222;48.858;10.128;2022-08-21T07:29:38;2.73;;;2.20;;
6378;SDS011;3222;48.858;10.128;2022-08-21T07:32:04;3.67;;;2.23;;
6378;SDS011;3222;48.858;10.128;2022-08-21T07:34:30;6.67;;;2.23;;
6378;SDS011;3222;48.858;10.128;2022-08-21T07:36:56;2.77;;;2.43;;
6378;SDS011;3222;48.858;10.128;2022-08-21T07:39:22;3.07;;;2.20;;
6378;SDS011;3222;48.858;10.128;2022-08-21T07:41:48;2.77;;;2.30;;
6378;SDS011;3222;48.858;10.128;2022-08-21T07:44:13;3.40;;;2.93;;
6378;SDS011;3222;48.858;10.128;2022-08-21T07:46:39;4.17;;;2.77;;
6378;SDS011;3222;48.858;10.128;2022-08-21T07:49:05;3.30;;;2.97;;
6378;SDS011;3222;48.858;10.128;2022-08-21T07:51:31;2.93;;;2.63;;
6378;SDS011;3222;48.858;10.128;2022-08-21T07:53:58;3.03;;;2.73;;
6378;SDS011;3222;48.858;10.128;2022-08-21T07:56:25;3.47;;;2.77;;
6378;SDS011;3222;48.858;10.128;2022-08-21T07:58:51;2.63;;;2.30;;
6378;SDS011;3222;48.858;10.128;2022-08-21T08:01:17;3.80;;;2.70;;
6378;SDS011;3222;48.858;10.128;2022-08-21T08:03:43;2.77;;;2.57;;
6378;SDS011;3222;48.858;10.128;2022-08-21T08:06:10;4.10;;;3.03;;
6378;SDS011;3222;48.858;10.128;2022-08-21T08:08:40;3.10;;;2.80;;
6378;SDS011;3222;48.858;10.128;2022-08-21T08:11:06;3.43;;;2.97;;
6378;SDS011;3222;48.858;10.128;2022-08-21T08:13:42;5.90;;;3.30;;
6378;SDS011;3222;48.858;10.128;2022-08-21T08:16:14;3.13;;;2.60;;
6378;SDS011;3222;48.858;10.128;2022-08-21T08:18:41;3.43;;;2.97;;
6378;SDS011;3222;48.858;10.128;2022-08-21T08:21:07;3.77;;;3.03;;
6378;SDS011;3222;48.858;10.128;2022-08-21T08:23:34;4.03;;;3.30;;
6378;SDS011;3222;48.858;10.128;2022-08-21T08:26:00;4.10;;;3.33;;
6378;SDS011;3222;48.858;10.128;2022-08-21T08:28:28;3.00;;;2.70;;
6378;SDS011;3222;48.858;10.128;2022-08-21T08:30:55;4.77;;;3.20;;
6378;SDS011;3222;48.858;10.128;2022-08-21T08:33:21;3.90;;;3.13;;
6378;SDS011;3222;48.858;10.128;2022-08-21T08:35:48;4.63;;;3.47;;
6378;SDS011;3222;48.858;10.128;2022-08-21T08:38:16;8.77;;;3.73;;
6378;SDS011;3222;48.858;10.128;2022-08-21T08:43:16;5.07;;;3.50;;
6378;SDS011;3222;48.858;10.128;2022-08-21T08:45:44;7.30;;;3.87;;
6378;SDS011;3222;48.858;10.128;2022-08-21T08:48:13;10.33;;;4.30;;
6378;SDS011;3222;48.858;10.128;2022-08-21T08:50:47;6.77;;;3.70;;
6378;SDS011;3222;48.858;10.128;2022-08-21T08:53:27;5.07;;;3.50;;
6378;SDS011;3222;48.858;10.128;2022-08-21T08:55:58;6.73;;;3.77;;
6378;SDS011;3222;48.858;10.128;2022-08-21T08:58:45;4.50;;;4.10;;
6378;SDS011;3222;48.858;10.128;2022-08-21T09:01:15;8.87;;;4.30;;
6378;SDS011;3222;48.858;10.128;2022-08-21T09:03:43;9.13;;;4.50;;
6378;SDS011;3222;48.858;10.128;2022-08-21T09:06:36;4.70;;;3.80;;
6378;SDS011;3222;48.858;10.128;2022-08-21T09:11:54;4.87;;;4.13;;
6378;SDS011;3222;48.858;10.128;2022-08-21T09:20:17;6.20;;;3.90;;
6378;SDS011;3222;48.858;10.128;2022-08-21T09:28:40;6.73;;;3.63;;
6378;SDS011;3222;48.858;10.128;2022-08-21T09:31:08;6.07;;;3.87;;
6378;SDS011;3222;48.858;10.128;2022-08-21T09:33:46;4.20;;;3.77;;
6378;SDS011;3222;48.858;10.128;2022-08-21T09:36:11;4.57;;;3.80;;
6378;SDS011;3222;48.858;10.128;2022-08-21T09:38:51;4.87;;;3.10;;
6378;SDS011;3222;48.858;10.128;2022-08-21T09:41:25;5.73;;;3.30;;
6378;SDS011;3222;48.858;10.128;2022-08-21T09:43:56;4.30;;;3.40;;
6378;SDS011;3222;48.858;10.128;2022-08-21T09:46:24;4.60;;;3.60;;
6378;SDS011;3222;48.858;10.128;2022-08-21T09:48:52;5.13;;;3.13;;
6378;SDS011;3222;48.858;10.128;2022-08-21T09:51:20;4.63;;;3.27;;
6378;SDS011;3222;48.858;10.128;2022-08-21T09:59:27;4.37;;;3.37;;
6378;SDS011;3222;48.858;10.128;2022-08-21T10:01:57;7.70;;;3.23;;
6378;SDS011;3222;48.858;10.128;2022-08-21T10:07:07;2.90;;;2.70;;
6378;SDS011;3222;48.858;10.128;2022-08-21T10:09:35;8.27;;;3.07;;
6378;SDS011;3222;48.858;10.128;2022-08-21T10:12:23;3.47;;;2.63;;
6378;SDS011;3222;48.858;10.128;2022-08-21T10:17:37;6.10;;;2.60;;
6378;SDS011;3222;48.858;10.128;2022-08-21T10:20:14;3.70;;;2.50;;
6378;SDS011;3222;48.858;10.128;2022-08-21T10:25:48;3.57;;;2.80;;
6378;SDS011;3222;48.858;10.128;2022-08-21T10:30:59;3.40;;;2.53;;
6378;SDS011;3222;48.858;10.128;2022-08-21T10:33:56;3.20;;;2.67;;
6378;SDS011;3222;48.858;10.128;2022-08-21T10:36:36;4.23;;;2.40;;
6378;SDS011;3222;48.858;10.128;2022-08-21T10:44:45;5.83;;;2.57;;
6378;SDS011;3222;48.858;10.128;2022-08-21T10:47:32;5.30;;;2.67;;
6378;SDS011;3222;48.858;10.128;2022-08-21T10:55:26;3.27;;;2.20;;
6378;SDS011;3222;48.858;10.128;2022-08-21T11:00:26;3.43;;;2.60;;
6378;SDS011;3222;48.858;10.128;2022-08-21T11:03:10;5.40;;;2.70;;
6378;SDS011;3222;48.858;10.128;2022-08-21T11:05:53;3.80;;;2.20;;
6378;SDS011;3222;48.858;10.128;2022-08-21T11:08:30;7.17;;;2.30;;
6378;SDS011;3222;48.858;10.128;2022-08-21T11:19:21;4.70;;;2.77;;
6378;SDS011;3222;48.858;10.128;2022-08-21T11:24:42;7.33;;;3.40;;
6378;SDS011;3222;48.858;10.128;2022-08-21T11:29:56;3.53;;;2.10;;
6378;SDS011;3222;48.858;10.128;2022-08-21T11:32:40;3.35;;;2.30;;
6378;SDS011;3222;48.858;10.128;2022-08-21T11:38:21;3.47;;;2.10;;
6378;SDS011;3222;48.858;10.128;2022-08-21T11:41:16;5.00;;;2.40;;
6378;SDS011;3222;48.858;10.128;2022-08-21T11:44:10;4.82;;;2.20;;
6378;SDS011;3222;48.858;10.128;2022-08-21T11:46:59;9.47;;;2.47;;
6378;SDS011;3222;48.858;10.128;2022-08-21T11:50:10;6.13;;;2.50;;
6378;SDS011;3222;48.858;10.128;2022-08-21T11:52:50;5.43;;;2.03;;
6378;SDS011;3222;48.858;10.128;2022-08-21T11:58:07;2.35;;;2.00;;
6378;SDS011;3222;48.858;10.128;2022-08-21T12:00:40;3.17;;;1.87;;
6378;SDS011;3222;48.858;10.128;2022-08-21T12:03:14;3.23;;;1.93;;
6378;SDS011;3222;48.858;10.128;2022-08-21T12:05:58;3.17;;;1.88;;
6378;SDS011;3222;48.858;10.128;2022-08-21T12:08:28;1.90;;;1.73;;
6378;SDS011;3222;48.858;10.128;2022-08-21T12:11:05;1.90;;;1.70;;
6378;SDS011;3222;48.858;10.128;2022-08-21T12:16:29;2.90;;;2.00;;
6378;SDS011;3222;48.858;10.128;2022-08-21T12:21:31;2.50;;;1.77;;
6378;SDS011;3222;48.858;10.128;2022-08-21T12:26:55;3.83;;;1.98;;
6378;SDS011;3222;48.858;10.128;2022-08-21T12:29:33;2.63;;;1.77;;
6378;SDS011;3222;48.858;10.128;2022-08-21T12:34:40;4.68;;;2.10;;
6378;SDS011;3222;48.858;10.128;2022-08-21T12:39:57;3.17;;;2.22;;
6378;SDS011;3222;48.858;10.128;2022-08-21T12:42:37;2.78;;;2.17;;
6378;SDS011;3222;48.858;10.128;2022-08-21T12:45:17;4.28;;;1.77;;
6378;SDS011;3222;48.858;10.128;2022-08-21T12:47:54;1.88;;;1.70;;
6378;SDS011;3222;48.858;10.128;2022-08-21T12:50:36;5.03;;;2.45;;
6378;SDS011;3222;48.858;10.128;2022-08-21T12:55:40;5.95;;;2.05;;
6378;SDS011;3222;48.858;10.128;2022-08-21T12:58:16;11.43;;;2.90;;
6378;SDS011;3222;48.858;10.128;2022-08-21T13:00:47;6.40;;;2.33;;
6378;SDS011;3222;48.858;10.128;2022-08-21T13:03:16;5.28;;;2.30;;
6378;SDS011;3222;48.858;10.128;2022-08-21T13:05:42;2.88;;;2.00;;
6378;SDS011;3222;48.858;10.128;2022-08-21T13:08:09;4.63;;;1.88;;
6378;SDS011;3222;48.858;10.128;2022-08-21T13:10:37;2.47;;;1.90;;
6378;SDS011;3222;48.858;10.128;2022-08-21T13:13:07;6.72;;;2.05;;
6378;SDS011;3222;48.858;10.128;2022-08-21T13:15:45;4.38;;;1.98;;
6378;SDS011;3222;48.858;10.128;2022-08-21T13:18:19;3.33;;;2.25;;
6378;SDS011;3222;48.858;10.128;2022-08-21T13:20:47;3.10;;;2.08;;
6378;SDS011;3222;48.858;10.128;2022-08-21T13:23:24;4.63;;;1.73;;
6378;SDS011;3222;48.858;10.128;2022-08-21T13:25:53;2.95;;;2.10;;
6378;SDS011;3222;48.858;10.128;2022-08-21T13:28:19;2.92;;;1.98;;
6378;SDS011;3222;48.858;10.128;2022-08-21T13:30:53;4.10;;;2.13;;
6378;SDS011;3222;48.858;10.128;2022-08-21T13:33:22;2.88;;;1.52;;
6378;SDS011;3222;48.858;10.128;2022-08-21T13:35:51;2.50;;;1.80;;
6378;SDS011;3222;48.858;10.128;2022-08-21T13:38:28;2.40;;;1.77;;
6378;SDS011;3222;48.858;10.128;2022-08-21T13:40:57;7.05;;;2.15;;
6378;SDS011;3222;48.858;10.128;2022-08-21T13:43:33;2.90;;;1.90;;
6378;SDS011;3222;48.858;10.128;2022-08-21T13:46:01;3.17;;;1.90;;
6378;SDS011;3222;48.858;10.128;2022-08-21T13:48:33;2.25;;;1.95;;
6378;SDS011;3222;48.858;10.128;2022-08-21T13:50:59;4.70;;;2.25;;
6378;SDS011;3222;48.858;10.128;2022-08-21T13:53:43;3.67;;;2.00;;
6378;SDS011;3222;48.858;10.128;2022-08-21T13:56:22;3.10;;;2.28;;
6378;SDS011;3222;48.858;10.128;2022-08-21T13:58:50;1.92;;;1.60;;
6378;SDS011;3222;48.858;10.128;2022-08-21T14:04:02;3.95;;;2.10;;
6378;SDS011;3222;48.858;10.128;2022-08-21T14:06:33;3.72;;;2.30;;
6378;SDS011;3222;48.858;10.128;2022-08-21T14:09:13;2.78;;;1.63;;
6378;SDS011;3222;48.858;10.128;2022-08-21T14:11:54;3.42;;;2.25;;
6378;SDS011;3222;48.858;10.128;2022-08-21T14:16:55;2.60;;;1.75;;
6378;SDS011;3222;48.858;10.128;2022-08-21T14:19:24;3.53;;;2.05;;
6378;SDS011;3222;48.858;10.128;2022-08-21T14:21:52;2.55;;;1.90;;
6378;SDS011;3222;48.858;10.128;2022-08-21T14:26:49;1.60;;;1.50;;
6378;SDS011;3222;48.858;10.128;2022-08-21T14:29:18;2.22;;;1.63;;
6378;SDS011;3222;48.858;10.128;2022-08-21T14:31:49;2.80;;;1.90;;
6378;SDS011;3222;48.858;10.128;2022-08-21T14:34:17;5.47;;;1.80;;
6378;SDS011;3222;48.858;10.128;2022-08-21T14:36:43;2.70;;;1.90;;
6378;SDS011;3222;48.858;10.128;2022-08-21T14:39:09;2.03;;;1.52;;
6378;SDS011;3222;48.858;10.128;2022-08-21T14:41:35;2.05;;;1.85;;
6378;SDS011;3222;48.858;10.128;2022-08-21T14:44:02;3.58;;;2.17;;
6378;SDS011;3222;48.858;10.128;2022-08-21T14:46:30;2.45;;;1.77;;
6378;SDS011;3222;48.858;10.128;2022-08-21T14:48:57;3.47;;;1.85;;
6378;SDS011;3222;48.858;10.128;2022-08-21T14:51:23;3.17;;;1.65;;
6378;SDS011;3222;48.858;10.128;2022-08-21T14:53:49;3.08;;;1.73;;
6378;SDS011;3222;48.858;10.128;2022-08-21T14:56:15;3.45;;;1.90;;
6378;SDS011;3222;48.858;10.128;2022-08-21T14:58:43;1.77;;;1.67;;
6378;SDS011;3222;48.858;10.128;2022-08-21T15:01:11;2.15;;;1.67;;
6378;SDS011;3222;48.858;10.128;2022-08-21T15:03:38;2.47;;;1.67;;
6378;SDS011;3222;48.858;10.128;2022-08-21T15:06:05;2.83;;;1.80;;
6378;SDS011;3222;48.858;10.128;2022-08-21T15:08:32;2.25;;;1.55;;
6378;SDS011;3222;48.858;10.128;2022-08-21T15:10:58;2.97;;;2.10;;
6378;SDS011;3222;48.858;10.128;2022-08-21T15:13:25;2.05;;;1.83;;
6378;SDS011;3222;48.858;10.128;2022-08-21T15:15:52;3.83;;;2.10;;
6378;SDS011;3222;48.858;10.128;2022-08-21T15:18:19;2.03;;;1.83;;
6378;SDS011;3222;48.858;10.128;2022-08-21T15:20:45;4.75;;;1.80;;
6378;SDS011;3222;48.858;10.128;2022-08-21T15:23:11;7.85;;;6.68;;
6378;SDS011;3222;48.858;10.128;2022-08-21T15:25:40;4.05;;;3.13;;
6378;SDS011;3222;48.858;10.128;2022-08-21T15:28:07;4.07;;;2.35;;
6378;SDS011;3222;48.858;10.128;2022-08-21T15:30:33;4.80;;;2.60;;
6378;SDS011;3222;48.858;10.128;2022-08-21T15:33:00;15.70;;;2.90;;
6378;SDS011;3222;48.858;10.128;2022-08-21T15:35:26;11.82;;;3.38;;
6378;SDS011;3222;48.858;10.128;2022-08-21T15:37:51;19.02;;;3.13;;
6378;SDS011;3222;48.858;10.128;2022-08-21T15:40:17;11.10;;;2.40;;
6378;SDS011;3222;48.858;10.128;2022-08-21T15:42:43;7.20;;;2.65;;
6378;SDS011;3222;48.858;10.128;2022-08-21T15:45:10;16.00;;;3.33;;
6378;SDS011;3222;48.858;10.128;2022-08-21T15:47:37;7.53;;;1.85;;
6378;SDS011;3222;48.858;10.128;2022-08-21T15:50:07;10.90;;;2.47;;
6378;SDS011;3222;48.858;10.128;2022-08-21T15:52:34;4.85;;;1.67;;
6378;SDS011;3222;48.858;10.128;2022-08-21T15:55:00;5.45;;;2.10;;
6378;SDS011;3222;48.858;10.128;2022-08-21T15:57:26;2.50;;;1.70;;
6378;SDS011;3222;48.858;10.128;2022-08-21T15:59:58;9.20;;;2.13;;
6378;SDS011;3222;48.858;10.128;2022-08-21T16:02:37;2.72;;;1.58;;
6378;SDS011;3222;48.858;10.128;2022-08-21T16:05:04;3.78;;;1.80;;
6378;SDS011;3222;48.858;10.128;2022-08-21T16:07:30;2.75;;;1.85;;
6378;SDS011;3222;48.858;10.128;2022-08-21T16:09:56;1.80;;;1.70;;
6378;SDS011;3222;48.858;10.128;2022-08-21T16:12:26;2.78;;;1.85;;
6378;SDS011;3222;48.858;10.128;2022-08-21T16:14:55;2.13;;;1.85;;
6378;SDS011;3222;48.858;10.128;2022-08-21T16:17:29;2.75;;;1.98;;
6378;SDS011;3222;48.858;10.128;2022-08-21T16:19:59;2.97;;;1.70;;
6378;SDS011;3222;48.858;10.128;2022-08-21T16:22:26;5.30;;;1.80;;
6378;SDS011;3222;48.858;10.128;2022-08-21T16:24:52;1.52;;;1.38;;
6378;SDS011;3222;48.858;10.128;2022-08-21T16:27:17;2.00;;;1.80;;
6378;SDS011;3222;48.858;10.128;2022-08-21T16:29:43;2.67;;;1.83;;
6378;SDS011;3222;48.858;10.128;2022-08-21T16:32:10;2.17;;;1.63;;
6378;SDS011;3222;48.858;10.128;2022-08-21T16:34:36;2.45;;;1.90;;
6378;SDS011;3222;48.858;10.128;2022-08-21T16:37:06;2.05;;;1.70;;
6378;SDS011;3222;48.858;10.128;2022-08-21T16:39:31;3.17;;;2.08;;
6378;SDS011;3222;48.858;10.128;2022-08-21T16:41:57;2.88;;;2.15;;